createdAt,value
2022-08-30T00:01:04.729Z,100432.09
2022-08-30T00:03:47.029Z,100436.50
2022-08-30T00:06:18.543Z,100437.41
2022-08-30T00:08:50.356Z,100432.13
2022-08-30T00:11:23.242Z,100443.88
2022-08-30T00:13:54.667Z,100450.69
2022-08-30T00:16:25.375Z,100443.44
2022-08-30T00:18:54.991Z,100436.25
2022-08-30T00:21:25.480Z,100458.75
2022-08-30T00:23:55.107Z,100423.22
2022-08-30T00:26:24.435Z,100455.97
2022-08-30T00:28:53.797Z,100450.91
2022-08-30T00:31:23.200Z,100455.88
2022-08-30T00:33:52.510Z,100459.47
2022-08-30T00:36:22.450Z,100464.63
2022-08-30T00:38:51.742Z,100491.31
2022-08-30T00:41:21.202Z,100484.50
2022-08-30T00:43:50.496Z,100467.09
2022-08-30T00:46:20.068Z,100489.69
2022-08-30T00:48:52.083Z,100488.44
2022-08-30T00:51:22.722Z,100493.59
2022-08-30T00:53:56.321Z,100494.97
2022-08-30T00:56:27.003Z,100493.44
2022-08-30T00:58:59.178Z,100489.94
2022-08-30T01:01:30.591Z,100498.38
2022-08-30T01:04:03.529Z,100474.84
2022-08-30T01:06:35.438Z,100500.63
2022-08-30T01:09:06.124Z,100487.47
2022-08-30T01:11:36.976Z,100499.59
2022-08-30T01:14:07.211Z,100495.56
2022-08-30T01:16:39.346Z,100508.22
2022-08-30T01:19:12.376Z,100507.97
2022-08-30T01:21:54.523Z,100499.41
2022-08-30T01:24:23.887Z,100511.53
2022-08-30T01:26:53.352Z,100513.22
2022-08-30T01:29:25.113Z,100508.72
2022-08-30T01:31:54.725Z,100488.56
2022-08-30T01:34:24.256Z,100499.94
2022-08-30T01:36:53.798Z,100504.50
2022-08-30T01:39:24.648Z,100507.72
2022-08-30T01:41:54.140Z,100494.66
2022-08-30T01:44:23.493Z,100483.91
2022-08-30T01:46:55.125Z,100461.38
2022-08-30T01:49:27.674Z,100490.66
2022-08-30T01:52:00.525Z,100498.44
2022-08-30T01:54:33.282Z,100479.44
2022-08-30T01:57:12.396Z,100488.06
2022-08-30T01:59:48.857Z,100488.34
2022-08-30T02:02:32.657Z,100483.81
2022-08-30T02:05:02.077Z,100469.31
2022-08-30T02:07:31.799Z,100481.16
2022-08-30T02:10:01.410Z,100479.03
2022-08-30T02:12:31.732Z,100483.63
2022-08-30T02:15:01.941Z,100449.00
2022-08-30T02:17:32.576Z,100493.00
2022-08-30T02:20:01.940Z,100479.34
2022-08-30T02:22:33.759Z,100473.97
2022-08-30T02:25:03.291Z,100476.13
2022-08-30T02:27:32.491Z,100463.81
2022-08-30T02:30:01.793Z,100466.25
2022-08-30T02:32:31.194Z,100466.78
2022-08-30T02:35:00.569Z,100460.63
2022-08-30T02:37:29.887Z,100467.09
2022-08-30T02:39:59.209Z,100464.41
2022-08-30T02:42:28.496Z,100467.63
2022-08-30T02:44:58.200Z,100449.66
2022-08-30T02:47:27.644Z,100444.31
2022-08-30T02:49:57.093Z,100406.78
2022-08-30T02:52:27.793Z,100460.94
2022-08-30T02:54:57.319Z,100431.47
2022-08-30T02:57:26.920Z,100425.84
2022-08-30T02:59:56.279Z,100451.56
2022-08-30T03:02:27.164Z,100438.16
2022-08-30T03:04:56.837Z,100436.56
2022-08-30T03:07:26.155Z,100435.75
2022-08-30T03:09:55.618Z,100434.72
2022-08-30T03:12:28.832Z,100425.88
2022-08-30T03:14:58.721Z,100432.56
2022-08-30T03:17:28.192Z,100433.09
2022-08-30T03:19:57.539Z,100432.56
2022-08-30T03:22:27.215Z,100430.16
2022-08-30T03:25:00.937Z,100423.19
2022-08-30T03:27:31.360Z,100420.56
2022-08-30T03:30:00.779Z,100410.91
2022-08-30T03:32:30.102Z,100418.66
2022-08-30T03:35:02.154Z,100423.78
2022-08-30T03:37:31.435Z,100416.78
2022-08-30T03:40:04.766Z,100410.91
2022-08-30T03:42:36.487Z,100406.09
2022-08-30T03:45:08.199Z,100399.13
2022-08-30T03:47:37.581Z,100396.19
2022-08-30T03:50:10.943Z,100401.00
2022-08-30T03:52:41.314Z,100387.88
2022-08-30T03:55:10.961Z,100403.13
2022-08-30T03:57:43.655Z,100393.78
2022-08-30T04:00:14.690Z,100384.38
2022-08-30T04:02:44.442Z,100381.69
2022-08-30T04:05:14.846Z,100391.59
2022-08-30T04:07:49.256Z,100394.03
2022-08-30T04:10:18.817Z,100390.28
2022-08-30T04:12:49.907Z,100390.81
2022-08-30T04:15:22.516Z,100376.34
2022-08-30T04:17:51.999Z,100377.69
2022-08-30T04:20:22.532Z,100372.34
2022-08-30T04:22:52.812Z,100380.38
2022-08-30T04:25:22.205Z,100384.38
2022-08-30T04:27:59.465Z,100381.41
2022-08-30T04:30:28.875Z,100364.03
2022-08-30T04:32:58.917Z,100356.78
2022-08-30T04:35:33.611Z,100374.72
2022-08-30T04:38:03.682Z,100345.81
2022-08-30T04:40:34.504Z,100351.97
2022-08-30T04:43:05.646Z,100374.72
2022-08-30T04:45:35.073Z,100345.28
2022-08-30T04:48:04.720Z,100347.94
2022-08-30T04:50:34.391Z,100352.75
2022-08-30T04:53:03.681Z,100354.09
2022-08-30T04:55:33.087Z,100341.25
2022-08-30T04:58:03.514Z,100350.09
2022-08-30T05:00:38.706Z,100355.44
2022-08-30T05:03:08.150Z,100351.38
2022-08-30T05:05:46.721Z,100345.50
2022-08-30T05:08:23.245Z,100337.19
2022-08-30T05:10:54.514Z,100345.25
2022-08-30T05:13:26.277Z,100325.94
2022-08-30T05:16:06.497Z,100323.00
2022-08-30T05:18:39.615Z,100301.88
2022-08-30T05:21:38.179Z,100326.97
2022-08-30T05:24:08.192Z,100330.19
2022-08-30T05:26:41.954Z,100324.84
2022-08-30T05:29:11.353Z,100298.34
2022-08-30T05:31:42.241Z,100313.06
2022-08-30T05:34:12.047Z,100315.19
2022-08-30T05:36:44.571Z,100295.38
2022-08-30T05:39:13.891Z,100307.69
2022-08-30T05:41:44.455Z,100275.03
2022-08-30T05:44:21.907Z,100290.25
2022-08-30T05:46:54.064Z,100281.16
2022-08-30T05:49:23.538Z,100284.59
2022-08-30T05:51:52.789Z,100284.34
2022-08-30T05:54:22.091Z,100285.97
2022-08-30T05:56:51.432Z,100286.25
2022-08-30T05:59:23.050Z,100321.34
2022-08-30T06:01:55.511Z,100316.78
2022-08-30T06:04:24.986Z,100333.94
2022-08-30T06:06:56.037Z,100333.13
2022-08-30T06:09:25.474Z,100335.53
2022-08-30T06:11:56.530Z,100335.81
2022-08-30T06:14:26.491Z,100312.22
2022-08-30T06:16:56.025Z,100329.63
2022-08-30T06:19:25.404Z,100315.41
2022-08-30T06:21:54.877Z,100323.19
2022-08-30T06:24:35.716Z,100310.56
2022-08-30T06:27:13.868Z,100281.13
2022-08-30T06:29:43.093Z,100282.47
2022-08-30T06:32:12.373Z,100298.03
2022-08-30T06:34:45.205Z,100321.31
2022-08-30T06:37:29.140Z,100343.56
2022-08-30T06:40:00.590Z,100361.78
2022-08-30T06:42:33.340Z,100372.78
2022-08-30T06:45:10.423Z,100361.25
2022-08-30T06:47:42.073Z,100350.53
2022-08-30T06:50:17.375Z,100326.97
2022-08-30T06:52:47.556Z,100331.75
2022-08-30T06:55:23.373Z,100339.03
2022-08-30T06:57:54.271Z,100336.34
2022-08-30T07:00:26.994Z,100325.91
2022-08-30T07:02:59.579Z,100321.09
2022-08-30T07:05:31.443Z,100330.75
2022-08-30T07:08:00.716Z,100339.59
2022-08-30T07:10:30.540Z,100341.47
2022-08-30T07:13:01.508Z,100325.38
2022-08-30T07:15:31.011Z,100334.75
2022-08-30T07:18:25.434Z,100332.06
2022-08-30T07:20:55.265Z,100313.38
2022-08-30T07:23:24.988Z,100336.38
2022-08-30T07:25:54.397Z,100335.28
2022-08-30T07:28:23.928Z,100333.97
2022-08-30T07:30:56.055Z,100331.84
2022-08-30T07:33:25.483Z,100334.25
2022-08-30T07:35:54.833Z,100323.53
2022-08-30T07:38:24.384Z,100316.06
2022-08-30T07:40:56.002Z,100340.41
2022-08-30T07:43:26.548Z,100340.94
2022-08-30T07:45:59.342Z,100336.13
2022-08-30T07:48:28.680Z,100344.69
2022-08-30T07:51:04.568Z,100341.22
2022-08-30T07:53:37.154Z,100341.75
2022-08-30T07:56:06.615Z,100343.88
2022-08-30T07:58:36.407Z,100336.94
2022-08-30T08:01:07.590Z,100342.03
2022-08-30T08:03:36.830Z,100335.06
2022-08-30T08:06:08.229Z,100335.31
2022-08-30T08:08:40.244Z,100342.03
2022-08-30T08:11:18.986Z,100324.91
2022-08-30T08:13:53.982Z,100367.75
2022-08-30T08:16:27.490Z,100358.38
2022-08-30T08:18:57.580Z,100376.31
2022-08-30T08:21:27.781Z,100384.38
2022-08-30T08:23:57.903Z,100386.22
2022-08-30T08:26:28.916Z,100386.22
2022-08-30T08:28:59.577Z,100385.72
2022-08-30T08:31:33.387Z,100398.31
2022-08-30T08:34:05.998Z,100377.97
2022-08-30T08:36:36.942Z,100402.84
2022-08-30T08:39:08.573Z,100408.75
2022-08-30T08:42:21.766Z,100402.59
2022-08-30T08:44:54.802Z,100397.22
2022-08-30T08:47:32.400Z,100390.81
2022-08-30T08:50:04.663Z,100390.81
2022-08-30T08:53:07.883Z,100394.03
2022-08-30T08:55:38.760Z,100370.97
2022-08-30T08:58:10.886Z,100369.38
2022-08-30T09:00:41.485Z,100386.25
2022-08-30T09:03:12.859Z,100374.75
2022-08-30T09:05:42.971Z,100381.69
2022-08-30T09:08:16.431Z,100387.06
2022-08-30T09:11:03.456Z,100380.63
2022-08-30T09:13:32.798Z,100390.28
2022-08-30T09:16:02.615Z,100385.47
2022-08-30T09:18:52.698Z,100392.94
2022-08-30T09:21:26.889Z,100396.72
2022-08-30T09:24:01.830Z,100393.22
2022-08-30T09:26:38.916Z,100384.91
2022-08-30T09:29:10.544Z,100393.75
2022-08-30T09:32:16.158Z,100387.59
2022-08-30T09:34:45.995Z,100390.81
2022-08-30T09:37:31.340Z,100397.78
2022-08-30T09:40:00.983Z,100396.94
2022-08-30T09:42:32.463Z,100371.53
2022-08-30T09:45:14.322Z,100369.94
2022-08-30T09:47:45.538Z,100384.66
2022-08-30T09:50:24.476Z,100402.31
2022-08-30T09:53:19.895Z,100400.72
2022-08-30T09:56:06.212Z,100411.97
2022-08-30T09:58:59.450Z,100404.22
2022-08-30T10:01:55.602Z,100401.53
2022-08-30T10:04:52.099Z,100408.75
2022-08-30T10:07:28.913Z,100410.63
2022-08-30T10:10:12.879Z,100406.06
2022-08-30T10:12:47.904Z,100394.53
2022-08-30T10:15:51.154Z,100402.31
2022-08-30T10:18:47.637Z,100399.63
2022-08-30T10:21:40.020Z,100409.56
2022-08-30T10:24:33.370Z,100418.66
2022-08-30T10:27:13.119Z,100421.34
2022-08-30T10:30:15.513Z,100419.47
2022-08-30T10:32:56.854Z,100428.31
2022-08-30T10:35:58.306Z,100404.75
2022-08-30T10:38:36.672Z,100408.22
2022-08-30T10:41:15.682Z,100421.34
2022-08-30T10:44:17.503Z,100424.84
2022-08-30T10:47:23.396Z,100411.16
2022-08-30T10:49:58.005Z,100418.66
2022-08-30T10:52:33.516Z,100422.69
2022-08-30T10:55:20.012Z,100415.75
2022-08-30T10:57:49.677Z,100436.09
2022-08-30T11:00:45.268Z,100426.47
2022-08-30T11:03:29.987Z,100436.63
2022-08-30T11:06:29.413Z,100452.16
2022-08-30T11:09:18.028Z,100456.44
2022-08-30T11:11:56.606Z,100465.56
2022-08-30T11:14:28.211Z,100463.69
2022-08-30T11:16:59.101Z,100481.38
2022-08-30T11:19:40.816Z,100478.97
2022-08-30T11:22:28.164Z,100475.72
2022-08-30T11:25:10.175Z,100481.63
2022-08-30T11:27:52.247Z,100489.69
2022-08-30T11:30:28.140Z,100490.72
2022-08-30T11:33:08.405Z,100496.09
2022-08-30T11:35:53.907Z,100508.44
2022-08-30T11:38:32.065Z,100504.94
2022-08-30T11:41:15.427Z,100512.72
2022-08-30T11:43:44.898Z,100501.19
2022-08-30T11:46:20.451Z,100521.56
2022-08-30T11:49:08.164Z,100520.75
2022-08-30T11:55:01.328Z,100542.72
2022-08-30T11:57:33.567Z,100543.00
2022-08-30T12:00:34.225Z,100537.34
2022-08-30T12:03:09.874Z,100549.94
2022-08-30T12:05:42.421Z,100545.41
2022-08-30T12:08:13.744Z,100532.25
2022-08-30T12:10:52.085Z,100552.63
2022-08-30T12:13:39.777Z,100531.44
2022-08-30T12:16:13.093Z,100559.34
2022-08-30T12:18:47.982Z,100551.56
2022-08-30T12:21:21.451Z,100558.53
2022-08-30T12:23:54.942Z,100530.66
2022-08-30T12:26:28.329Z,100555.84
2022-08-30T12:29:25.345Z,100546.75
2022-08-30T12:32:20.469Z,100562.03
2022-08-30T12:35:02.401Z,100557.72
2022-08-30T12:37:38.534Z,100553.16
2022-08-30T12:40:21.921Z,100550.75
2022-08-30T12:43:05.549Z,100556.38
2022-08-30T12:45:50.981Z,100563.84
2022-08-30T12:48:21.918Z,100548.72
2022-08-30T12:51:01.881Z,100561.19
2022-08-30T12:53:41.947Z,100567.13
2022-08-30T12:56:49.567Z,100548.16
2022-08-30T12:59:56.762Z,100557.16
2022-08-30T13:02:46.639Z,100558.25
2022-08-30T13:05:44.350Z,100561.50
2022-08-30T13:08:23.106Z,100544.88
2022-08-30T13:10:58.162Z,100574.91
2022-08-30T13:13:34.564Z,100567.44
2022-08-30T13:16:39.509Z,100565.78
